Time;durP1;ratioP1;P1;durP2;ratioP2;P2;SDS_P1;SDS_P2;PMS_P1;PMS_P2;Temp;Humidity;BMP_temperature;BMP_pressure;BME280_temperature;BME280_humidity;BME280_pressure;Samples;Min_cycle;Max_cycle;Signal;HPM_P1;HPM_P2
2023/03/04 00:00:42;;;;;;;15.43;3.65;;;;;;;;;;4920353;29;21088;-79
2023/03/04 00:03:13;;;;;;;17.73;2.78;;;;;;;;;;4936194;29;20439;-79
2023/03/04 00:05:39;;;;;;;12.35;2.58;;;;;;;;;;4921241;29;20986;-79
2023/03/04 00:08:06;;;;;;;12.02;2.63;;;;;;;;;;4920460;29;20466;-79
2023/03/04 00:10:32;;;;;;;12.40;2.55;;;;;;;;;;4920718;29;20439;-80
2023/03/04 00:12:58;;;;;;;11.15;2.47;;;;;;;;;;4936075;29;20990;-79
2023/03/04 00:15:24;;;;;;;10.02;2.70;;;;;;;;;;4936067;29;20414;-80
2023/03/04 00:17:50;;;;;;;13.05;2.90;;;;;;;;;;4936297;29;20412;-80
2023/03/04 00:20:16;;;;;;;17.23;3.22;;;;;;;;;;4936018;29;20411;-80
2023/03/04 00:22:42;;;;;;;14.52;3.10;;;;;;;;;;4920384;29;20816;-79
2023/03/04 00:25:08;;;;;;;13.02;2.65;;;;;;;;;;4920756;29;20415;-80
2023/03/04 00:27:34;;;;;;;14.70;2.70;;;;;;;;;;4936010;29;20420;-79
2023/03/04 00:30:00;;;;;;;12.55;2.60;;;;;;;;;;4936235;29;20491;-80
2023/03/04 00:32:26;;;;;;;17.23;2.80;;;;;;;;;;4920372;29;20419;-79
2023/03/04 00:34:52;;;;;;;14.77;3.10;;;;;;;;;;4935645;29;20471;-80
2023/03/04 00:37:18;;;;;;;12.70;2.40;;;;;;;;;;4935762;29;20415;-79
2023/03/04 00:39:44;;;;;;;12.85;2.70;;;;;;;;;;4919973;29;20423;-79
2023/03/04 00:42:10;;;;;;;15.27;2.65;;;;;;;;;;4934889;29;20440;-79
2023/03/04 00:44:37;;;;;;;12.25;2.42;;;;;;;;;;4919855;29;20415;-79
2023/03/04 00:47:03;;;;;;;15.40;3.05;;;;;;;;;;4935735;29;20411;-80
2023/03/04 00:49:29;;;;;;;15.63;3.58;;;;;;;;;;4919926;29;20448;-80
2023/03/04 00:51:55;;;;;;;16.02;2.60;;;;;;;;;;4935701;29;20419;-80
2023/03/04 00:54:21;;;;;;;13.40;2.70;;;;;;;;;;4919832;29;20423;-80
2023/03/04 00:56:47;;;;;;;12.57;2.85;;;;;;;;;;4935323;29;20483;-80
2023/03/04 00:59:13;;;;;;;14.30;2.88;;;;;;;;;;4935184;29;20411;-80
2023/03/04 01:01:39;;;;;;;15.43;2.88;;;;;;;;;;4935009;29;20514;-79
2023/03/04 01:04:05;;;;;;;11.38;2.50;;;;;;;;;;4935382;29;20418;-79
2023/03/04 01:06:31;;;;;;;14.82;3.15;;;;;;;;;;4932961;29;20420;-79
2023/03/04 01:08:57;;;;;;;12.73;3.00;;;;;;;;;;4935146;29;20896;-80
2023/03/04 01:11:23;;;;;;;16.37;2.97;;;;;;;;;;4935083;29;20419;-80
2023/03/04 01:13:49;;;;;;;12.70;2.40;;;;;;;;;;4935057;29;20419;-80
2023/03/04 01:16:16;;;;;;;13.15;2.72;;;;;;;;;;4935499;29;20420;-79
2023/03/04 01:18:42;;;;;;;15.65;2.67;;;;;;;;;;4935022;29;20423;-80
2023/03/04 01:21:08;;;;;;;13.85;2.78;;;;;;;;;;4919245;29;20455;-80
2023/03/04 01:23:34;;;;;;;12.77;2.60;;;;;;;;;;4934859;29;20408;-80
2023/03/04 01:26:00;;;;;;;12.52;2.53;;;;;;;;;;4919184;29;20407;-80
2023/03/04 01:28:26;;;;;;;16.42;2.38;;;;;;;;;;4919309;29;20547;-80
2023/03/04 01:30:52;;;;;;;13.05;2.33;;;;;;;;;;4934734;29;20928;-80
2023/03/04 01:33:18;;;;;;;12.90;2.40;;;;;;;;;;4934753;29;20422;-80
2023/03/04 01:35:44;;;;;;;11.68;2.25;;;;;;;;;;4934473;29;20447;-80
2023/03/04 01:38:11;;;;;;;10.40;2.30;;;;;;;;;;4934742;29;20411;-80
2023/03/04 01:40:37;;;;;;;9.73;2.30;;;;;;;;;;4934746;29;20415;-80
2023/03/04 01:43:04;;;;;;;14.10;2.50;;;;;;;;;;4934635;29;20449;-80
2023/03/04 01:45:31;;;;;;;16.52;2.60;;;;;;;;;;4934669;29;20422;-80
2023/03/04 01:47:57;;;;;;;13.80;2.78;;;;;;;;;;4934429;29;20416;-80
2023/03/04 01:50:31;;;;;;;14.10;2.40;;;;;;;;;;4934414;29;20505;-80
2023/03/04 01:52:57;;;;;;;13.73;2.53;;;;;;;;;;4934421;29;20416;-80
2023/03/04 01:55:24;;;;;;;14.48;2.67;;;;;;;;;;4918593;29;20479;-80
2023/03/04 01:57:51;;;;;;;16.05;2.95;;;;;;;;;;4934176;29;20989;-80
2023/03/04 02:00:22;;;;;;;13.10;3.00;;;;;;;;;;4918623;29;20450;-79
2023/03/04 02:02:50;;;;;;;18.40;2.70;;;;;;;;;;4934087;29;20450;-79
2023/03/04 02:05:16;;;;;;;19.13;2.97;;;;;;;;;;4918093;29;20415;-80
2023/03/04 02:07:42;;;;;;;21.30;3.88;;;;;;;;;;4934250;29;20415;-80
2023/03/04 02:10:09;;;;;;;17.10;2.90;;;;;;;;;;4934011;29;20454;-80
2023/03/04 02:12:35;;;;;;;11.40;2.58;;;;;;;;;;4934439;29;20800;-80
2023/03/04 02:15:01;;;;;;;15.15;2.80;;;;;;;;;;4933896;29;20411;-80
2023/03/04 02:17:28;;;;;;;14.97;2.90;;;;;;;;;;4918479;29;20411;-80
2023/03/04 02:20:29;;;;;;;18.40;2.97;;;6.10;99.90;;;;;;4934236;29;20904;-80
2023/03/04 02:23:09;;;;;;;16.25;2.70;;;;;;;;;;4934087;29;20462;-80
2023/03/04 02:26:13;;;;;;;14.65;2.78;;;6.10;99.90;;;;;;4934262;29;20416;-80
2023/03/04 02:28:39;;;;;;;12.50;2.53;;;;;;;;;;4938330;29;20498;-80
2023/03/04 02:31:05;;;;;;;13.15;2.65;;;;;;;;;;4919230;29;20499;-80
2023/03/04 02:33:32;;;;;;;10.15;2.42;;;;;;;;;;4918875;29;20828;-79
2023/03/04 02:35:58;;;;;;;12.23;2.83;;;;;;;;;;4933958;29;20411;-80
2023/03/04 02:38:24;;;;;;;13.05;2.90;;;;;;;;;;4933829;29;20411;-80
2023/03/04 02:40:53;;;;;;;11.95;2.55;;;6.20;99.90;;;;;;4933870;29;20760;-80
2023/03/04 02:43:19;;;;;;;15.30;3.13;;;;;;;;;;4933549;29;20934;-80
2023/03/04 02:45:48;;;;;;;14.95;2.75;;;6.10;99.90;;;;;;4933932;29;20455;-80
2023/03/04 02:48:17;;;;;;;13.13;3.00;;;6.10;99.90;;;;;;4917771;29;20919;-80
2023/03/04 02:50:45;;;;;;;16.38;2.72;;;;;;;;;;4918109;29;20423;-80
2023/03/04 02:53:11;;;;;;;10.10;2.35;;;;;;;;;;4933562;29;20419;-80
2023/03/04 02:55:37;;;;;;;12.05;2.53;;;;;;;;;;4933333;29;20420;-80
2023/03/04 02:58:04;;;;;;;13.23;2.78;;;;;;;;;;4918225;29;20415;-80
2023/03/04 03:00:30;;;;;;;11.38;2.28;;;;;;;;;;4933774;29;20420;-80
2023/03/04 03:02:56;;;;;;;9.75;2.50;;;;;;;;;;4917347;29;20431;-80
2023/03/04 03:05:24;;;;;;;11.75;2.78;;;;;;;;;;4936505;29;20415;-80
2023/03/04 03:07:50;;;;;;;13.75;2.78;;;;;;;;;;4937007;29;20433;-80
2023/03/04 03:10:16;;;;;;;15.20;3.67;;;;;;;;;;4921705;29;20808;-80
2023/03/04 03:12:42;;;;;;;11.73;2.70;;;;;;;;;;4937197;29;20417;-80
2023/03/04 03:15:08;;;;;;;14.10;2.70;;;;;;;;;;4921273;29;20900;-80
2023/03/04 03:17:34;;;;;;;11.52;2.45;;;;;;;;;;4921153;29;20426;-80
2023/03/04 03:20:00;;;;;;;12.00;2.45;;;;;;;;;;4921368;29;20506;-80
2023/03/04 03:22:26;;;;;;;11.13;2.72;;;;;;;;;;4921154;29;20920;-80
2023/03/04 03:24:53;;;;;;;15.97;2.97;;;;;;;;;;4921354;29;20879;-79
2023/03/04 03:27:19;;;;;;;11.20;2.20;;;;;;;;;;4936700;29;20470;-80
2023/03/04 03:29:45;;;;;;;11.13;2.28;;;;;;;;;;4936981;29;20486;-80
2023/03/04 03:32:11;;;;;;;14.98;2.78;;;;;;;;;;4920871;29;20411;-80
2023/03/04 03:34:37;;;;;;;13.45;2.47;;;;;;;;;;4936930;29;20483;-80
2023/03/04 03:37:03;;;;;;;12.18;2.40;;;;;;;;;;4937095;29;20760;-80
2023/03/04 03:39:29;;;;;;;14.45;3.08;;;;;;;;;;4936989;29;20411;-80
2023/03/04 03:41:55;;;;;;;12.93;2.58;;;;;;;;;;4920861;29;20435;-80
2023/03/04 03:44:21;;;;;;;17.50;2.70;;;;;;;;;;4936880;29;20939;-79
2023/03/04 03:46:47;;;;;;;11.93;2.30;;;;;;;;;;4920708;29;20915;-80
2023/03/04 03:49:13;;;;;;;10.32;2.22;;;;;;;;;;4936930;29;21006;-79
2023/03/04 03:51:39;;;;;;;14.05;2.72;;;;;;;;;;4920980;29;20430;-80
2023/03/04 03:54:05;;;;;;;11.10;2.42;;;;;;;;;;4920945;29;20775;-80
2023/03/04 03:56:31;;;;;;;10.20;2.55;;;;;;;;;;4936265;29;20422;-80
2023/03/04 03:58:58;;;;;;;13.77;2.35;;;;;;;;;;4936490;29;20919;-80
2023/03/04 04:01:24;;;;;;;8.83;2.30;;;;;;;;;;4920447;29;20485;-80
2023/03/04 04:03:50;;;;;;;11.77;2.40;;;;;;;;;;4936072;29;20479;-80
2023/03/04 04:06:16;;;;;;;15.15;2.40;;;;;;;;;;4936008;29;20439;-80
2023/03/04 04:08:42;;;;;;;10.47;2.40;;;;;;;;;;4936135;29;20466;-80
2023/03/04 04:11:12;;;;;;;13.50;2.88;;;;;;;;;;4936241;29;20904;-80
2023/03/04 04:13:38;;;;;;;14.73;2.53;;;;;;;;;;4920260;29;20503;-78
2023/03/04 04:16:05;;;;;;;12.53;2.70;;;;;;;;;;4920134;29;21019;-80
2023/03/04 04:18:31;;;;;;;17.02;2.70;;;;;;;;;;4920290;29;20418;-80
2023/03/04 04:20:57;;;;;;;14.53;2.40;;;;;;;;;;4936004;29;20525;-80
2023/03/04 04:23:23;;;;;;;12.05;2.22;;;;;;;;;;4935684;29;20447;-80
2023/03/04 04:25:49;;;;;;;14.43;3.20;;;;;;;;;;4935842;29;20420;-79
2023/03/04 04:28:15;;;;;;;14.80;2.70;;;;;;;;;;4935810;29;20417;-80
2023/03/04 04:30:41;;;;;;;15.55;2.55;;;;;;;;;;4920381;29;20546;-79
2023/03/04 04:33:09;;;;;;;10.70;2.20;;;5.90;99.90;;;;;;4935774;29;20419;-79
2023/03/04 04:35:37;;;;;;;11.20;2.33;;;;;;;;;;4936021;29;20768;-80
2023/03/04 04:38:03;;;;;;;11.48;2.38;;;;;;;;;;4935808;29;20422;-79
2023/03/04 04:40:29;;;;;;;11.15;2.20;;;;;;;;;;4920100;29;20415;-79
2023/03/04 04:42:55;;;;;;;10.73;2.40;;;;;;;;;;4935412;29;20440;-80
2023/03/04 04:45:23;;;;;;;13.48;2.25;;;;;;;;;;4919968;29;20427;-80
2023/03/04 04:47:50;;;;;;;13.20;2.30;;;;;;;;;;4919855;29;20488;-80
2023/03/04 04:50:16;;;;;;;13.68;2.58;;;;;;;;;;4935784;29;20412;-80
2023/03/04 04:52:42;;;;;;;9.40;2.00;;;;;;;;;;4919655;29;20416;-80
2023/03/04 04:55:08;;;;;;;12.77;2.10;;;;;;;;;;4935224;29;20513;-80
2023/03/04 04:57:34;;;;;;;12.50;2.92;;;;;;;;;;4935250;29;20484;-80
2023/03/04 05:00:01;;;;;;;11.35;2.40;;;;;;;;;;4919501;29;20502;-79
2023/03/04 05:02:27;;;;;;;12.85;2.30;;;;;;;;;;4919134;29;20435;-79
2023/03/04 05:04:53;;;;;;;11.45;2.00;;;;;;;;;;4919243;29;20439;-79
2023/03/04 05:07:19;;;;;;;8.30;1.80;;;;;;;;;;4934637;29;20423;-79
2023/03/04 05:09:45;;;;;;;13.48;2.08;;;;;;;;;;4919117;29;20482;-80
2023/03/04 05:12:11;;;;;;;11.47;2.37;;;;;;;;;;4919376;29;20416;-80
2023/03/04 05:14:37;;;;;;;9.95;1.70;;;;;;;;;;4935343;29;20477;-79
2023/03/04 05:17:03;;;;;;;9.50;2.15;;;;;;;;;;4919792;29;20467;-80
2023/03/04 05:19:29;;;;;;;9.20;2.00;;;;;;;;;;4919253;29;20499;-80
2023/03/04 05:21:55;;;;;;;7.63;1.60;;;;;;;;;;4919153;29;20446;-80
2023/03/04 05:24:21;;;;;;;8.68;1.83;;;;;;;;;;4934836;29;20430;-80
2023/03/04 05:26:47;;;;;;;8.55;1.85;;;;;;;;;;4934651;29;20415;-80
2023/03/04 05:29:14;;;;;;;9.70;2.28;;;;;;;;;;4935157;29;20412;-80
2023/03/04 05:31:40;;;;;;;8.82;2.00;;;;;;;;;;4919233;29;20415;-80
2023/03/04 05:34:06;;;;;;;7.15;1.80;;;;;;;;;;4934920;29;20498;-80
2023/03/04 05:36:32;;;;;;;10.68;1.60;;;;;;;;;;4934679;29;20415;-80
2023/03/04 05:38:58;;;;;;;6.80;1.63;;;;;;;;;;4918963;29;20467;-80
2023/03/04 05:41:24;;;;;;;9.10;1.60;;;;;;;;;;4919021;29;20426;-79
2023/03/04 05:43:51;;;;;;;7.30;1.50;;;;;;;;;;4934438;29;20506;-79
2023/03/04 05:46:24;;;;;;;6.70;1.40;;;6.30;99.90;;;;;;4918827;29;20755;-79
2023/03/04 05:48:51;;;;;;;6.97;1.70;;;6.10;99.90;;;;;;4934267;29;20828;-79
2023/03/04 05:51:18;;;;;;;8.90;1.67;;;;;;;;;;4934097;29;20918;-81
2023/03/04 05:53:44;;;;;;;10.50;1.73;;;;;;;;;;4918499;29;20800;-80
2023/03/04 05:56:11;;;;;;;7.93;1.75;;;;;;;;;;4934216;29;20414;-80
2023/03/04 05:58:37;;;;;;;7.63;1.65;;;;;;;;;;4934010;29;20439;-80
2023/03/04 06:01:04;;;;;;;10.20;2.00;;;;;;;;;;4934319;29;20494;-80
2023/03/04 06:03:30;;;;;;;8.80;1.80;;;;;;;;;;4934341;29;20446;-81
2023/03/04 06:05:57;;;;;;;12.88;1.90;;;;;;;;;;4934073;29;20430;-81
2023/03/04 06:08:23;;;;;;;9.48;2.08;;;;;;;;;;4918297;29;20407;-81
2023/03/04 06:10:52;;;;;;;8.48;2.05;;;;;;;;;;4918353;29;20411;-80
2023/03/04 06:13:18;;;;;;;10.02;2.47;;;;;;;;;;4934365;29;20499;-80
2023/03/04 06:15:44;;;;;;;8.95;1.90;;;;;;;;;;4934390;29;20416;-80
2023/03/04 06:18:10;;;;;;;8.10;1.90;;;;;;;;;;4934639;29;20415;-80
2023/03/04 06:20:37;;;;;;;11.75;2.72;;;;;;;;;;4935256;29;20908;-81
2023/03/04 06:23:03;;;;;;;9.60;2.25;;;;;;;;;;4918430;29;20950;-80
2023/03/04 06:25:29;;;;;;;11.52;2.40;;;;;;;;;;4934713;29;20539;-81
2023/03/04 06:27:55;;;;;;;9.73;2.65;;;;;;;;;;4934940;29;20407;-79
2023/03/04 06:30:22;;;;;;;11.57;2.40;;;;;;;;;;4918357;29;20422;-78
2023/03/04 06:32:48;;;;;;;10.77;2.35;;;;;;;;;;4933190;29;20411;-79
2023/03/04 06:35:15;;;;;;;11.35;2.50;;;;;;;;;;4933365;29;20411;-79
2023/03/04 06:37:42;;;;;;;9.07;2.25;;;;;;;;;;4917758;29;20768;-79
2023/03/04 06:40:08;;;;;;;9.07;2.15;;;;;;;;;;4932570;29;20452;-79
2023/03/04 06:42:35;;;;;;;10.35;2.30;;;;;;;;;;4933124;29;20805;-79
2023/03/04 06:45:01;;;;;;;9.50;2.10;;;;;;;;;;4933141;29;20411;-78
2023/03/04 06:47:27;;;;;;;9.85;2.30;;;;;;;;;;4917317;29;20415;-78
2023/03/04 06:49:53;;;;;;;10.15;2.20;;;;;;;;;;4917517;29;20769;-78
2023/03/04 06:52:19;;;;;;;11.43;2.42;;;;;;;;;;4917606;29;20764;-78
2023/03/04 06:54:46;;;;;;;11.95;2.40;;;;;;;;;;4917749;29;20427;-78
2023/03/04 06:57:12;;;;;;;10.60;2.40;;;;;;;;;;4917386;29;20498;-78
2023/03/04 06:59:38;;;;;;;12.77;2.77;;;;;;;;;;4933315;29;20411;-78
2023/03/04 07:02:04;;;;;;;11.98;2.10;;;;;;;;;;4917179;29;20439;-78
2023/03/04 07:04:30;;;;;;;10.13;1.93;;;;;;;;;;4932952;29;20538;-78
2023/03/04 07:06:57;;;;;;;11.10;2.03;;;;;;;;;;4916939;29;20428;-78
2023/03/04 07:09:23;;;;;;;12.98;2.28;;;;;;;;;;4933027;29;20412;-78
2023/03/04 07:11:49;;;;;;;12.55;2.22;;;;;;;;;;4917254;29;20420;-78
2023/03/04 07:14:15;;;;;;;8.77;2.10;;;;;;;;;;4933308;29;20423;-78
2023/03/04 07:16:41;;;;;;;12.77;2.33;;;;;;;;;;4917383;29;20426;-81
2023/03/04 07:19:08;;;;;;;9.95;2.10;;;;;;;;;;4917699;29;20426;-82
2023/03/04 07:21:34;;;;;;;12.40;2.22;;;;;;;;;;4933459;29;20422;-82
2023/03/04 07:24:00;;;;;;;11.23;2.40;;;;;;;;;;4933642;29;20416;-81
2023/03/04 07:26:26;;;;;;;13.82;2.83;;;;;;;;;;4917802;29;20448;-82
2023/03/04 07:28:53;;;;;;;13.02;2.60;;;;;;;;;;4918718;29;20491;-81
2023/03/04 07:31:28;;;;;;;12.00;2.40;;;;;;;;;;4934574;29;20415;-82
2023/03/04 07:33:56;;;;;;;14.20;2.73;;;;;;;;;;4918630;29;20408;-82
2023/03/04 07:36:22;;;;;;;15.82;2.35;;;;;;;;;;4917633;29;20414;-81
2023/03/04 07:38:49;;;;;;;13.45;2.38;;;;;;;;;;4932998;29;20423;-80
2023/03/04 07:41:16;;;;;;;17.77;3.13;;;;;;;;;;4933045;29;20416;-80
2023/03/04 07:43:42;;;;;;;13.73;2.50;;;;;;;;;;4932805;29;20446;-80
2023/03/04 07:46:09;;;;;;;14.65;2.45;;;;;;;;;;4933004;29;20486;-79
2023/03/04 07:48:36;;;;;;;15.57;2.83;;;;;;;;;;4932931;29;20479;-79
2023/03/04 07:51:03;;;;;;;11.20;2.50;;;;;;;;;;4935176;29;20459;-80
2023/03/04 07:53:29;;;;;;;14.13;2.50;;;;;;;;;;4936327;29;20476;-79
2023/03/04 07:55:55;;;;;;;13.95;2.83;;;;;;;;;;4936725;29;20464;-79
2023/03/04 07:58:21;;;;;;;12.55;2.80;;;;;;;;;;4936376;29;20462;-79
2023/03/04 08:00:47;;;;;;;17.33;2.78;;;;;;;;;;4920319;29;20427;-79
2023/03/04 08:03:13;;;;;;;12.18;2.55;;;;;;;;;;4935863;29;20443;-79
2023/03/04 08:05:39;;;;;;;13.27;2.90;;;;;;;;;;4920679;29;20407;-79
2023/03/04 08:08:05;;;;;;;14.40;2.80;;;;;;;;;;4935906;29;20487;-79
2023/03/04 08:10:31;;;;;;;15.73;2.65;;;;;;;;;;4936073;29;20420;-78
2023/03/04 08:12:57;;;;;;;18.50;3.22;;;;;;;;;;4936293;29;20415;-79
2023/03/04 08:15:26;;;;;;;16.17;2.83;;;;;;;;;;4920220;29;20411;-79
2023/03/04 08:17:52;;;;;;;15.55;3.00;;;;;;;;;;4937410;29;20407;-79
2023/03/04 08:20:18;;;;;;;17.23;3.57;;;;;;;;;;4920750;29;20438;-79
2023/03/04 08:22:44;;;;;;;16.45;3.20;;;;;;;;;;4936059;29;20442;-79
2023/03/04 08:25:10;;;;;;;15.57;3.33;;;;;;;;;;4933797;29;20443;-79
2023/03/04 08:27:37;;;;;;;14.95;2.83;;;;;;;;;;4918232;29;20494;-79
2023/03/04 08:30:04;;;;;;;15.63;2.97;;;;;;;;;;4934423;29;20444;-79
2023/03/04 08:32:30;;;;;;;19.05;3.10;;;;;;;;;;4919994;29;20491;-79
2023/03/04 08:34:56;;;;;;;16.40;3.47;;;;;;;;;;4935854;29;20495;-79
2023/03/04 08:37:22;;;;;;;16.65;3.10;;;;;;;;;;4936195;29;20836;-79
2023/03/04 08:39:48;;;;;;;17.17;3.22;;;;;;;;;;4935746;29;20426;-79
2023/03/04 08:42:14;;;;;;;20.10;3.37;;;;;;;;;;4920098;29;20447;-79
2023/03/04 08:44:40;;;;;;;16.27;2.70;;;;;;;;;;4919976;29;20411;-79
2023/03/04 08:47:09;;;;;;;16.45;3.60;;;;;;;;;;4935844;29;20408;-79
2023/03/04 08:49:35;;;;;;;21.67;3.60;;;;;;;;;;4935636;29;20959;-79
2023/03/04 08:52:01;;;;;;;16.13;3.47;;;;;;;;;;4935774;29;20490;-79
2023/03/04 08:54:27;;;;;;;23.27;4.47;;;;;;;;;;4919578;29;20427;-79
2023/03/04 08:56:53;;;;;;;23.98;4.03;;;;;;;;;;4919739;29;20415;-79
2023/03/04 08:59:19;;;;;;;17.60;3.88;;;;;;;;;;4919357;29;20474;-79
2023/03/04 09:01:46;;;;;;;18.65;3.30;;;;;;;;;;4918713;29;20439;-79
2023/03/04 09:04:12;;;;;;;19.03;3.67;;;;;;;;;;4919708;29;20545;-79
2023/03/04 09:06:38;;;;;;;19.88;3.65;;;;;;;;;;4919358;29;20427;-79
2023/03/04 09:09:04;;;;;;;22.45;3.72;;;;;;;;;;4935094;29;20408;-79
2023/03/04 09:11:30;;;;;;;17.42;3.90;;;;;;;;;;4935098;29;20418;-79
2023/03/04 09:13:57;;;;;;;16.05;3.33;;;;;;;;;;4935292;29;20411;-80
2023/03/04 09:16:23;;;;;;;20.95;3.80;;;;;;;;;;4919487;29;20507;-79
2023/03/04 09:18:49;;;;;;;19.00;4.18;;;;;;;;;;4919359;29;20414;-79
2023/03/04 09:21:15;;;;;;;19.75;3.70;;;;;;;;;;4919473;29;20411;-79
2023/03/04 09:23:41;;;;;;;19.73;3.83;;;;;;;;;;4934688;29;20475;-79
2023/03/04 09:26:15;;;;;;;19.50;3.60;;;;;;;;;;4935090;29;20411;-79
2023/03/04 09:28:41;;;;;;;18.05;3.60;;;;;;;;;;4935262;29;20407;-79
2023/03/04 09:31:11;;;;;;;23.05;3.70;;;;;;;;;;4919311;29;20418;-79
2023/03/04 09:33:40;;;;;;;18.60;4.10;;;;;;;;;;4934893;29;20411;-79
2023/03/04 09:36:06;;;;;;;19.48;3.78;;;;;;;;;;4919362;29;20475;-79
2023/03/04 09:38:32;;;;;;;14.93;3.27;;;;;;;;;;4918970;29;20416;-79
2023/03/04 09:41:03;;;;;;;13.93;3.45;;;6.80;99.90;;;;;;4918981;29;20420;-79
2023/03/04 09:43:31;;;;;;;16.30;3.92;;;;;;;;;;4934685;29;20435;-79
2023/03/04 09:45:59;;;;;;;18.38;3.03;;;;;;;;;;4919339;29;20459;-80
2023/03/04 09:48:28;;;;;;;17.13;3.20;;;;;;;;;;4918835;29;20618;-79
2023/03/04 09:51:06;;;;;;;17.48;3.58;;;;;;;;;;4934901;29;20411;-79
2023/03/04 09:53:55;;;;;;;18.70;3.65;;;;;;;;;;4934377;29;20573;-78
2023/03/04 09:56:22;;;;;;;19.50;3.53;;;;;;;;;;4945408;29;20419;-79
2023/03/04 09:58:48;;;;;;;18.92;3.75;;;;;;;;;;4918581;29;20420;-79
2023/03/04 10:01:31;;;;;;;16.13;3.58;;;;;;;;;;4934672;29;20415;-79
2023/03/04 10:04:08;;;;;;;18.90;4.00;;;;;;;;;;4918967;29;20491;-79
2023/03/04 10:06:36;;;;;;;17.30;3.23;;;7.00;99.90;;;;;;4930252;29;20524;-79
2023/03/04 10:09:02;;;;;;;16.52;3.17;;;;;;;;;;4919366;29;20411;-78
2023/03/04 10:11:34;;;;;;;19.80;3.80;;;;;;;;;;4919547;29;20794;-79
2023/03/04 10:14:08;;;;;;;19.67;3.78;;;;;;;;;;4920374;29;20446;-79
2023/03/04 10:16:37;;;;;;;11.35;2.72;;;;;;;;;;4935180;29;20487;-79
2023/03/04 10:19:13;;;;;;;8.57;1.90;;;;;;;;;;4935551;29;20463;-79
2023/03/04 10:21:42;;;;;;;12.73;2.07;;;;;;;;;;4936408;29;20415;-79
2023/03/04 10:24:12;;;;;;;8.38;1.38;;;;;;;;;;4918920;29;20419;-78
2023/03/04 10:26:38;;;;;;;7.63;1.20;;;;;;;;;;4918082;29;20450;-79
2023/03/04 10:29:06;;;;;;;6.90;1.45;;;;;;;;;;4934939;29;20411;-80
2023/03/04 10:31:40;;;;;;;12.32;1.63;;;;;;;;;;4934193;29;20411;-79
2023/03/04 10:34:06;;;;;;;8.07;1.60;;;;;;;;;;4933941;29;20473;-79
2023/03/04 10:36:39;;;;;;;5.78;1.40;;;;;;;;;;4917930;29;20419;-79
2023/03/04 10:39:10;;;;;;;7.30;1.67;;;;;;;;;;4917723;29;20415;-80
2023/03/04 10:41:36;;;;;;;9.75;1.40;;;;;;;;;;4917585;29;20403;-79
2023/03/04 10:44:02;;;;;;;6.55;1.50;;;;;;;;;;4917920;29;20498;-80
2023/03/04 10:46:28;;;;;;;6.00;1.77;;;;;;;;;;4933767;29;20490;-80
2023/03/04 10:48:54;;;;;;;9.63;1.80;;;;;;;;;;4917876;29;20430;-80
2023/03/04 10:51:22;;;;;;;9.50;1.90;;;;;;;;;;4918033;29;20438;-79
2023/03/04 10:53:50;;;;;;;9.48;2.00;;;;;;;;;;4933347;29;20478;-79
2023/03/04 10:56:41;;;;;;;8.05;2.00;;;6.80;99.90;;;;;;4918218;29;20411;-80
2023/03/04 10:59:23;;;;;;;11.35;2.25;;;;;;;;;;4933758;29;20434;-80
2023/03/04 11:01:50;;;;;;;7.80;2.00;;;;;;;;;;4933565;29;20435;-79
2023/03/04 11:04:19;;;;;;;10.40;2.13;;;;;;;;;;4933540;29;20411;-79
2023/03/04 11:06:45;;;;;;;12.90;2.35;;;;;;;;;;4917233;29;20421;-79
2023/03/04 11:09:23;;;;;;;12.93;2.38;;;;;;;;;;4933634;29;20418;-79
2023/03/04 11:11:51;;;;;;;10.80;2.28;;;;;;;;;;4933704;29;20418;-79
2023/03/04 11:14:29;;;;;;;12.95;2.10;;;7.80;99.90;;;;;;4933615;29;20471;-79
2023/03/04 11:17:00;;;;;;;14.18;2.22;;;;;;;;;;4933365;29;20527;-79
2023/03/04 11:19:37;;;;;;;14.00;2.53;;;8.30;99.90;;;;;;4933700;29;20416;-79
2023/03/04 11:22:04;;;;;;;12.52;2.63;;;;;;;;;;4933315;29;20796;-80
2023/03/04 11:24:32;;;;;;;13.50;2.73;;;;;;;;;;4917784;29;20464;-80
2023/03/04 11:27:07;;;;;;;19.33;3.45;;;;;;;;;;4937113;29;20545;-79
2023/03/04 11:29:41;;;;;;;20.27;3.50;;;;;;;;;;4920967;29;20415;-79
2023/03/04 11:32:26;;;;;;;19.02;3.20;;;;;;;;;;4921283;29;20411;-79
2023/03/04 11:35:00;;;;;;;17.65;3.38;;;7.10;99.90;;;;;;4936654;29;20412;-79
2023/03/04 11:37:36;;;;;;;18.20;3.05;;;7.20;99.90;;;;;;4936649;29;20415;-79
2023/03/04 11:40:10;;;;;;;18.48;3.55;;;;;;;;;;4936960;29;20415;-79
2023/03/04 11:42:47;;;;;;;18.77;4.13;;;7.40;99.90;;;;;;4920681;29;20509;-79
2023/03/04 11:45:14;;;;;;;13.45;3.25;;;;;;;;;;4936623;29;20407;-79
2023/03/04 11:47:40;;;;;;;16.50;2.88;;;;;;;;;;4936371;29;20420;-80
2023/03/04 11:50:09;;;;;;;14.60;3.25;;;;;;;;;;4936243;29;20412;-79
2023/03/04 11:52:35;;;;;;;14.50;3.00;;;;;;;;;;4936525;29;20415;-79
2023/03/04 11:55:04;;;;;;;12.77;2.75;;;;;;;;;;4920387;29;20966;-79
2023/03/04 11:57:54;;;;;;;13.43;3.08;;;;;;;;;;4920771;29;20419;-80
2023/03/04 12:00:39;;;;;;;16.40;3.00;;;;;;;;;;4936653;29;20415;-79
2023/03/04 12:03:24;;;;;;;14.23;2.93;;;;;;;;;;4936228;29;20439;-79
2023/03/04 12:06:08;;;;;;;14.55;2.78;;;;;;;;;;4936232;29;20415;-79
2023/03/04 12:08:50;;;;;;;14.13;3.00;;;;;;;;;;4920141;29;20476;-80
2023/03/04 12:11:19;;;;;;;17.33;3.33;;;;;;;;;;4920164;29;20490;-79
2023/03/04 12:13:45;;;;;;;16.90;3.08;;;;;;;;;;4936047;29;20415;-79
2023/03/04 12:16:30;;;;;;;18.37;3.90;;;;;;;;;;4935996;29;20415;-79
2023/03/04 12:19:02;;;;;;;20.58;3.50;;;;;;;;;;4936172;29;20415;-79
2023/03/04 12:21:48;;;;;;;14.77;3.35;;;7.10;99.90;;;;;;4935763;29;20423;-79
2023/03/04 12:24:17;;;;;;;24.97;4.70;;;;;;;;;;4916338;29;20463;-79
2023/03/04 12:27:00;;;;;;;22.63;5.00;;;;;;;;;;4935736;29;20416;-80
2023/03/04 12:29:26;;;;;;;17.23;4.15;;;;;;;;;;4936197;29;20494;-79
2023/03/04 12:31:58;;;;;;;19.42;3.60;;;;;;;;;;4920731;29;20415;-79
2023/03/04 12:34:32;;;;;;;16.00;3.83;;;;;;;;;;4919688;29;20454;-80
2023/03/04 12:36:58;;;;;;;15.48;3.25;;;;;;;;;;4919789;29;20420;-79
2023/03/04 12:39:28;;;;;;;16.23;3.13;;;;;;;;;;4935468;29;20478;-79
2023/03/04 12:41:57;;;;;;;17.77;3.28;;;;;;;;;;4935188;29;20522;-79
2023/03/04 12:44:23;;;;;;;15.05;2.85;;;;;;;;;;4919667;29;20752;-80
2023/03/04 12:47:05;;;;;;;14.90;3.15;;;;;;;;;;4935468;29;20416;-80
2023/03/04 12:49:46;;;;;;;15.85;3.40;;;7.40;99.90;;;;;;4936336;29;20415;-79
2023/03/04 12:52:20;;;;;;;16.92;3.22;;;;;;;;;;4935981;29;20438;-79
2023/03/04 12:54:51;;;;;;;14.65;3.17;;;7.50;99.90;;;;;;4919863;29;20522;-79
2023/03/04 12:57:25;;;;;;;17.17;4.10;;;7.30;99.90;;;;;;4935736;29;20470;-79
2023/03/04 12:59:51;;;;;;;16.88;3.13;;;;;;;;;;4935670;29;20416;-79
2023/03/04 13:02:35;;;;;;;17.10;3.20;;;;;;;;;;4935307;29;20797;-79
2023/03/04 13:05:04;;;;;;;14.82;2.92;;;;;;;;;;4935452;29;20816;-79
2023/03/04 13:07:30;;;;;;;10.88;2.53;;;;;;;;;;4935363;29;20502;-79
2023/03/04 13:10:04;;;;;;;14.45;2.92;;;;;;;;;;4935957;29;20414;-79
2023/03/04 13:12:49;;;;;;;14.20;2.63;;;8.10;99.90;;;;;;4936499;29;20411;-79
2023/03/04 13:15:22;;;;;;;17.38;3.80;;;;;;;;;;4936412;29;20412;-79
2023/03/04 13:17:51;;;;;;;16.02;3.45;;;;;;;;;;4935713;29;20891;-78
2023/03/04 13:20:20;;;;;;;12.27;2.83;;;;;;;;;;4935536;29;20426;-79
2023/03/04 13:22:46;;;;;;;12.70;2.60;;;;;;;;;;4935641;29;20435;-79
2023/03/04 13:25:41;;;;;;;11.32;2.60;;;7.70;99.90;;;;;;4935636;29;20531;-79
2023/03/04 13:28:14;;;;;;;12.40;2.45;;;;;;;;;;4935426;29;20911;-80
2023/03/04 13:30:41;;;;;;;15.73;2.60;;;;;;;;;;4935501;29;20412;-79
2023/03/04 13:33:11;;;;;;;11.35;2.40;;;;;;;;;;4935684;29;20760;-79
2023/03/04 13:35:46;;;;;;;10.20;2.30;;;;;;;;;;4934855;29;20416;-79
2023/03/04 13:38:21;;;;;;;11.00;2.35;;;;;;;;;;4934476;29;20424;-79
2023/03/04 13:41:13;;;;;;;10.80;2.42;;;7.50;99.90;;;;;;4934363;29;20423;-80
2023/03/04 13:43:41;;;;;;;8.67;2.13;;;;;;;;;;4934345;29;20490;-79
2023/03/04 13:46:22;;;;;;;10.18;1.92;;;;;;;;;;4934255;29;20466;-79
2023/03/04 13:48:51;;;;;;;10.60;2.10;;;;;;;;;;4933976;29;20416;-79
2023/03/04 13:51:17;;;;;;;10.13;2.30;;;;;;;;;;4934581;29;20470;-79
2023/03/04 13:53:59;;;;;;;9.35;2.70;;;7.60;99.90;;;;;;4918692;29;20415;-79
2023/03/04 13:56:28;;;;;;;9.60;2.17;;;7.60;99.90;;;;;;4934565;29;20831;-79
2023/03/04 13:59:15;;;;;;;10.82;2.28;;;7.60;99.90;;;;;;4934204;29;20919;-79
2023/03/04 14:01:55;;;;;;;8.82;2.13;;;7.40;99.90;;;;;;4934390;29;20408;-80
2023/03/04 14:04:41;;;;;;;8.50;1.93;;;7.30;99.90;;;;;;4934520;29;20549;-79
2023/03/04 14:07:19;;;;;;;7.43;1.80;;;;;;;;;;4934256;29;20423;-80
2023/03/04 14:09:55;;;;;;;9.82;1.90;;;;;;;;;;4934366;29;20442;-79
2023/03/04 14:12:21;;;;;;;11.93;2.30;;;;;;;;;;4935144;29;20415;-79
2023/03/04 14:14:50;;;;;;;10.27;2.40;;;;;;;;;;4936021;29;20951;-79
2023/03/04 14:17:21;;;;;;;12.65;2.28;;;;;;;;;;4938714;29;20400;-80
2023/03/04 14:19:47;;;;;;;10.98;2.53;;;;;;;;;;4938549;29;20508;-79
2023/03/04 14:22:27;;;;;;;10.20;2.40;;;;;;;;;;4937969;29;20502;-79
2023/03/04 14:24:57;;;;;;;14.05;2.58;;;;;;;;;;4937964;29;20457;-79
2023/03/04 14:27:23;;;;;;;13.50;2.40;;;;;;;;;;4937086;29;20419;-79
2023/03/04 14:29:59;;;;;;;11.38;2.53;;;;;;;;;;4934863;29;20466;-79
2023/03/04 14:32:26;;;;;;;12.25;2.53;;;;;;;;;;4934634;29;20427;-79